EWG3PL EDDH-EDDL
Flight info
| Callsign | EWG3PL |
|---|---|
| Flight time | N/A |
| Altitude | 26000 |
| Route | HABFU1G HABFU Y348 MAWEQ Z718 OSNAD M170 HMM/N0399F240 T851 HALME HALME1A |
| Aircraft | A319/M-SDE3FGHIRWY/LB1 |
Departure
| Time | 2026-05-07 17:48 |
|---|---|
| Airport | Hamburg Helmut Schmidt Airport (EDDH) |
Arrival
| Time | N/A |
|---|---|
| Airport | Düsseldorf Airport (EDDL) |
| Time | Latitude | Longitude | Altitude | Speed | Heading |
|---|---|---|---|---|---|
| 2026-05-07 17:24 | 53.62845 | 10.00221 | 49 ft | 0 kts | 62° |
| 2026-05-07 17:24 | 53.62809 | 10.00246 | 49 ft | 0 kts | 63° |
| 2026-05-07 17:41 | 53.62802 | 10.00222 | 46 ft | 4 kts | 59° |
| 2026-05-07 17:41 | 53.62785 | 10.00181 | 45 ft | 4 kts | 46° |
| 2026-05-07 17:41 | 53.62768 | 10.00157 | 49 ft | 4 kts | 20° |
| 2026-05-07 17:41 | 53.62749 | 10.00155 | 49 ft | 1 kts | 333° |
| 2026-05-07 17:42 | 53.62745 | 10.00157 | 46 ft | 0 kts | 333° |
| 2026-05-07 17:44 | 53.62749 | 10.00154 | 49 ft | 2 kts | 333° |
| 2026-05-07 17:45 | 53.62765 | 10.00141 | 49 ft | 4 kts | 333° |
| 2026-05-07 17:45 | 53.62797 | 10.00113 | 49 ft | 6 kts | 333° |
| 2026-05-07 17:45 | 53.62844 | 10.00063 | 49 ft | 9 kts | 314° |
| 2026-05-07 17:45 | 53.62846 | 9.99962 | 47 ft | 11 kts | 245° |
| 2026-05-07 17:46 | 53.62809 | 9.99836 | 46 ft | 7 kts | 243° |
| 2026-05-07 17:46 | 53.62824 | 9.99784 | 44 ft | 0 kts | 333° |
| 2026-05-07 17:47 | 53.62827 | 9.99781 | 45 ft | 3 kts | 333° |
| 2026-05-07 17:47 | 53.63034 | 9.99603 | 46 ft | 79 kts | 333° |
| 2026-05-07 17:47 | 53.63725 | 9.99011 | 63 ft | 153 kts | 336° |
| 2026-05-07 17:48 | 53.64411 | 9.98435 | 629 ft | 155 kts | 336° |
| 2026-05-07 17:48 | 53.65784 | 9.97272 | 1818 ft | 169 kts | 337° |
| 2026-05-07 17:48 | 53.66920 | 9.96311 | 2478 ft | 193 kts | 336° |
| 2026-05-07 17:48 | 53.67784 | 9.95573 | 2908 ft | 209 kts | 336° |
| 2026-05-07 17:49 | 53.69125 | 9.94423 | 3680 ft | 224 kts | 336° |
| 2026-05-07 17:49 | 53.70523 | 9.92853 | 4693 ft | 234 kts | 313° |
| 2026-05-07 17:49 | 53.71221 | 9.90508 | 5755 ft | 241 kts | 284° |
| 2026-05-07 17:49 | 53.71166 | 9.87565 | 6495 ft | 269 kts | 253° |
| 2026-05-07 17:50 | 53.70538 | 9.84404 | 7507 ft | 281 kts | 250° |
| 2026-05-07 17:50 | 53.69910 | 9.81353 | 8729 ft | 284 kts | 250° |
| 2026-05-07 17:50 | 53.69256 | 9.78163 | 9620 ft | 291 kts | 251° |
| 2026-05-07 17:50 | 53.68602 | 9.74934 | 9945 ft | 291 kts | 251° |
| 2026-05-07 17:51 | 53.67951 | 9.71662 | 10080 ft | 297 kts | 252° |
| 2026-05-07 17:51 | 53.67235 | 9.68012 | 10628 ft | 322 kts | 252° |
| 2026-05-07 17:51 | 53.66566 | 9.64600 | 11635 ft | 327 kts | 252° |
| 2026-05-07 17:51 | 53.65644 | 9.61066 | 12727 ft | 331 kts | 240° |
| 2026-05-07 17:52 | 53.64178 | 9.57814 | 13865 ft | 336 kts | 226° |
| 2026-05-07 17:52 | 53.62448 | 9.55414 | 14775 ft | 341 kts | 213° |
| 2026-05-07 17:52 | 53.60372 | 9.53448 | 15715 ft | 345 kts | 209° |
| 2026-05-07 17:52 | 53.58250 | 9.51517 | 16622 ft | 349 kts | 209° |
| 2026-05-07 17:53 | 53.56087 | 9.49545 | 17529 ft | 354 kts | 209° |
| 2026-05-07 17:53 | 53.53917 | 9.47564 | 18405 ft | 359 kts | 209° |
| 2026-05-07 17:53 | 53.51700 | 9.45537 | 19200 ft | 363 kts | 210° |
| 2026-05-07 17:53 | 53.49450 | 9.43481 | 20030 ft | 366 kts | 210° |
| 2026-05-07 17:54 | 53.47221 | 9.41449 | 20822 ft | 370 kts | 209° |
| 2026-05-07 17:54 | 53.44955 | 9.39385 | 21613 ft | 374 kts | 210° |
| 2026-05-07 17:54 | 53.42654 | 9.37293 | 22413 ft | 378 kts | 210° |
| 2026-05-07 17:54 | 53.40328 | 9.35180 | 23212 ft | 382 kts | 210° |
| 2026-05-07 17:55 | 53.37979 | 9.33051 | 23956 ft | 385 kts | 210° |
| 2026-05-07 17:55 | 53.35606 | 9.30904 | 24599 ft | 389 kts | 210° |
| 2026-05-07 17:55 | 53.33135 | 9.28830 | 25227 ft | 394 kts | 204° |
| 2026-05-07 17:55 | 53.30551 | 9.27448 | 25805 ft | 399 kts | 194° |
| 2026-05-07 17:56 | 53.27811 | 9.26585 | 26035 ft | 401 kts | 191° |
| 2026-05-07 17:56 | 53.25091 | 9.25783 | 26087 ft | 390 kts | 191° |
| 2026-05-07 17:56 | 53.22442 | 9.25006 | 26091 ft | 383 kts | 191° |
| 2026-05-07 17:56 | 53.19828 | 9.24238 | 26096 ft | 380 kts | 191° |
| 2026-05-07 17:57 | 53.17227 | 9.23469 | 26097 ft | 379 kts | 191° |
| 2026-05-07 17:57 | 53.15504 | 9.22956 | 26097 ft | 379 kts | 191° |
| 2026-05-07 17:57 | 53.12031 | 9.21920 | 26099 ft | 379 kts | 191° |
| 2026-05-07 17:57 | 53.09440 | 9.21096 | 26098 ft | 379 kts | 196° |
| 2026-05-07 17:58 | 53.06866 | 9.19227 | 26103 ft | 389 kts | 212° |
| 2026-05-07 17:58 | 53.04658 | 9.16918 | 26102 ft | 393 kts | 213° |
| 2026-05-07 17:58 | 53.02349 | 9.14461 | 26107 ft | 395 kts | 214° |
| 2026-05-07 17:58 | 53.00028 | 9.11968 | 26753 ft | 396 kts | 214° |
| 2026-05-07 17:59 | 52.97721 | 9.09488 | 27641 ft | 393 kts | 214° |
| 2026-05-07 17:59 | 52.95378 | 9.06977 | 28505 ft | 392 kts | 214° |
| 2026-05-07 17:59 | 52.93149 | 9.04601 | 29322 ft | 390 kts | 213° |
| 2026-05-07 17:59 | 52.90818 | 9.02125 | 29961 ft | 391 kts | 213° |
| 2026-05-07 18:00 | 52.88503 | 8.99675 | 30095 ft | 390 kts | 213° |
| 2026-05-07 18:00 | 52.86220 | 8.97269 | 30107 ft | 389 kts | 213° |
| 2026-05-07 18:00 | 52.81649 | 8.92460 | 30104 ft | 389 kts | 213° |
| 2026-05-07 18:01 | 52.77058 | 8.87626 | 30097 ft | 389 kts | 213° |